Time;durP1;ratioP1;P1;durP2;ratioP2;P2;SDS_P1;SDS_P2;PMS_P1;PMS_P2;Temp;Humidity;BMP_temperature;BMP_pressure;BME280_temperature;BME280_humidity;BME280_pressure;Samples;Min_cycle;Max_cycle;Signal;HPM_P1;HPM_P2
2022/05/10 00:02:15;;;;;;;11.30;9.97;;;14.20;99.90;;;;;;5055999;28;20272;-62
2022/05/10 00:04:49;;;;;;;13.53;10.27;;;14.30;99.90;;;;;;5078983;28;20506;-62
2022/05/10 00:07:17;;;;;;;13.57;9.67;;;14.30;99.90;;;;;;5078835;28;20222;-62
2022/05/10 00:09:45;;;;;;;13.50;10.33;;;14.30;99.90;;;;;;5064837;28;20233;-62
2022/05/10 00:12:12;;;;;;;12.43;9.57;;;14.40;99.90;;;;;;5057900;28;20206;-62
2022/05/10 00:14:39;;;;;;;12.07;9.63;;;14.40;99.90;;;;;;5063645;28;20203;-61
2022/05/10 00:17:06;;;;;;;11.70;9.97;;;14.30;99.90;;;;;;5075895;28;20256;-62
2022/05/10 00:19:33;;;;;;;13.90;9.40;;;14.30;99.90;;;;;;5060329;28;20704;-62
2022/05/10 00:22:00;;;;;;;11.33;9.23;;;14.30;99.90;;;;;;5077081;28;20255;-61
2022/05/10 00:24:27;;;;;;;10.37;9.17;;;14.40;99.90;;;;;;5076327;28;20282;-61
2022/05/10 00:26:55;;;;;;;10.57;8.67;;;14.40;99.90;;;;;;5041371;28;20210;-62
2022/05/10 00:29:25;;;;;;;10.30;9.30;;;14.40;99.90;;;;;;5080487;28;20220;-61
2022/05/10 00:31:52;;;;;;;10.77;9.13;;;14.30;99.90;;;;;;5081678;28;20268;-61
2022/05/10 00:34:19;;;;;;;15.67;9.23;;;14.40;99.90;;;;;;5069039;28;20191;-62
2022/05/10 00:36:46;;;;;;;11.27;9.70;;;14.30;99.90;;;;;;5064026;28;20588;-62
2022/05/10 00:39:16;;;;;;;10.07;9.07;;;14.30;99.90;;;;;;5079270;28;20253;-62
2022/05/10 00:41:47;;;;;;;9.57;8.57;;;14.30;99.90;;;;;;5081435;28;20198;-61
2022/05/10 00:44:22;;;;;;;11.90;9.30;;;14.20;99.90;;;;;;5063451;28;20250;-64
2022/05/10 00:47:06;;;;;;;13.87;9.40;;;14.30;99.90;;;;;;5079546;28;20678;-62
2022/05/10 00:49:42;;;;;;;13.53;9.10;;;14.30;99.90;;;;;;5061933;28;20194;-61
2022/05/10 00:52:15;;;;;;;10.60;8.70;;;14.20;99.90;;;;;;5080826;28;20292;-62
2022/05/10 00:55:01;;;;;;;12.97;8.70;;;14.20;99.90;;;;;;5079791;28;20341;-62
2022/05/10 00:57:33;;;;;;;11.87;8.63;;;14.20;99.90;;;;;;5079968;28;20563;-62
2022/05/10 01:00:05;;;;;;;11.30;8.50;;;14.30;99.90;;;;;;5063527;28;20179;-62
2022/05/10 01:02:55;;;;;;;8.97;8.03;;;14.20;99.90;;;;;;5069460;28;20686;-62
2022/05/10 01:05:44;;;;;;;9.67;8.60;;;14.20;99.90;;;;;;5078202;28;20186;-61
2022/05/10 01:08:23;;;;;;;9.00;8.10;;;14.20;99.90;;;;;;5061729;28;20211;-61
2022/05/10 01:11:02;;;;;;;10.17;8.60;;;14.20;99.90;;;;;;5076921;28;20682;-61
2022/05/10 01:13:54;;;;;;;13.70;9.17;;;14.20;99.90;;;;;;5069395;28;20248;-61
2022/05/10 01:16:23;;;;;;;9.10;8.20;;;14.20;99.90;;;;;;5079616;28;20225;-61
2022/05/10 01:18:55;;;;;;;12.87;8.40;;;14.20;99.90;;;;;;5066116;28;20199;-61
2022/05/10 01:21:49;;;;;;;10.93;8.20;;;14.20;99.90;;;;;;5059628;28;20183;-61
2022/05/10 01:24:29;;;;;;;9.47;8.57;;;14.20;99.90;;;;;;5077109;28;20203;-61
2022/05/10 01:27:26;;;;;;;9.40;8.50;;;14.10;99.90;;;;;;5079404;28;20194;-64
2022/05/10 01:30:14;;;;;;;9.47;8.57;;;14.10;99.90;;;;;;5060010;28;20205;-63
2022/05/10 01:35:44;;;;;;;9.97;8.97;;;13.70;99.90;;;;;;5062266;28;20197;-62
2022/05/10 01:38:40;;;;;;;10.57;9.30;;;13.70;99.90;;;;;;5079480;28;20278;-62
2022/05/10 01:41:30;;;;;;;8.83;8.03;;;13.70;99.90;;;;;;5048329;28;20280;-62
2022/05/10 01:44:16;;;;;;;10.70;8.00;;;13.80;99.90;;;;;;5058356;28;20260;-62
2022/05/10 01:46:50;;;;;;;10.27;8.77;;;13.80;99.90;;;;;;5041839;28;20245;-62
2022/05/10 01:49:36;;;;;;;9.20;8.27;;;13.90;99.90;;;;;;5041481;28;20207;-62
2022/05/10 01:52:41;;;;;;;8.40;7.60;;;13.80;99.90;;;;;;5055851;28;20293;-62
2022/05/10 01:55:26;;;;;;;9.33;8.27;;;13.90;99.90;;;;;;5020049;28;20211;-62
2022/05/10 01:57:59;;;;;;;9.87;8.30;;;13.90;99.90;;;;;;5059705;28;20240;-62
2022/05/10 02:00:27;;;;;;;10.20;8.13;;;13.80;99.90;;;;;;5040027;28;20236;-62
2022/05/10 02:03:15;;;;;;;11.90;8.90;;;13.70;99.90;;;;;;5059296;28;20286;-62
2022/05/10 02:05:54;;;;;;;10.63;9.50;;;13.60;99.90;;;;;;5058448;28;20219;-62
2022/05/10 02:09:03;;;;;;;12.93;9.03;;;13.40;99.90;;;;;;5057663;28;20199;-62
2022/05/10 02:11:34;;;;;;;16.27;10.27;;;13.30;99.90;;;;;;5028775;28;20321;-62
2022/05/10 02:14:30;;;;;;;11.70;9.67;;;13.10;1.00;;;;;;5040987;28;20213;-62
2022/05/10 02:17:07;;;;;;;10.47;9.37;;;13.00;1.00;;;;;;5051416;28;20222;-62
2022/05/10 02:19:46;;;;;;;10.10;8.37;;;12.90;1.00;;;;;;5056424;28;20195;-61
2022/05/10 02:22:34;;;;;;;13.60;11.00;;;12.90;1.00;;;;;;5041087;28;20256;-62
2022/05/10 02:25:15;;;;;;;10.73;9.23;;;13.00;1.00;;;;;;5023968;28;20203;-62
2022/05/10 02:27:48;;;;;;;13.13;9.37;;;13.10;1.00;;;;;;5044362;28;20211;-62
2022/05/10 02:30:19;;;;;;;12.50;9.50;;;13.00;1.00;;;;;;5039217;28;20252;-62
2022/05/10 02:33:07;;;;;;;10.60;9.57;;;13.10;1.00;;;;;;5048468;28;20834;-62
2022/05/10 02:35:48;;;;;;;12.87;9.10;;;13.00;1.00;;;;;;5037903;28;20215;-62
2022/05/10 02:38:20;;;;;;;12.27;9.33;;;13.10;1.00;;;;;;5047053;28;20710;-62
2022/05/10 02:40:51;;;;;;;11.70;9.43;;;13.10;1.00;;;;;;5061780;28;20690;-62
2022/05/10 02:43:31;;;;;;;12.23;8.73;;;13.10;1.00;;;;;;5077240;28;20282;-62
2022/05/10 02:45:59;;;;;;;10.50;9.33;;;13.20;1.00;;;;;;5059413;28;20236;-62
2022/05/10 02:48:34;;;;;;;13.73;9.63;;;13.20;1.00;;;;;;5067014;28;20231;-61
2022/05/10 02:51:02;;;;;;;10.33;9.27;;;13.10;1.00;;;;;;5065423;28;20247;-62
2022/05/10 02:53:30;;;;;;;11.33;8.97;;;13.10;1.00;;;;;;5078866;28;20641;-62
2022/05/10 02:56:01;;;;;;;12.07;8.90;;;13.20;1.00;;;;;;5077771;28;20202;-61
2022/05/10 02:58:55;;;;;;;9.63;8.60;;;13.20;99.90;;;;;;5079123;28;20195;-62
2022/05/10 03:01:49;;;;;;;14.03;9.37;;;13.10;99.90;;;;;;5078284;28;20183;-62
2022/05/10 03:04:21;;;;;;;9.47;8.60;;;13.20;99.90;;;;;;5060991;28;20200;-62
2022/05/10 03:06:49;;;;;;;9.17;8.27;;;13.20;99.90;;;;;;5077854;28;20285;-64
2022/05/10 03:09:19;;;;;;;11.13;8.93;;;13.30;99.90;;;;;;5077634;28;20198;-61
2022/05/10 03:11:46;;;;;;;11.93;9.70;;;13.20;99.90;;;;;;5067058;28;20198;-61
2022/05/10 03:14:15;;;;;;;10.70;9.00;;;13.20;99.90;;;;;;5076688;28;20205;-62
2022/05/10 03:16:42;;;;;;;10.90;9.20;;;13.20;99.90;;;;;;5076610;28;20209;-61
2022/05/10 03:19:09;;;;;;;13.67;9.33;;;13.10;99.90;;;;;;5066095;28;20229;-62
2022/05/10 03:21:39;;;;;;;12.13;9.77;;;13.00;1.00;;;;;;5065651;28;20715;-62
2022/05/10 03:24:06;;;;;;;13.33;9.73;;;13.00;1.00;;;;;;5076503;28;20202;-62
2022/05/10 03:26:33;;;;;;;11.83;10.23;;;13.00;1.00;;;;;;5059343;28;20201;-62
2022/05/10 03:29:00;;;;;;;13.97;9.77;;;12.90;1.00;;;;;;5066220;28;20237;-62
2022/05/10 03:31:29;;;;;;;10.90;9.40;;;12.80;1.00;;;;;;5075556;28;20240;-62
2022/05/10 03:36:43;;;;;;;12.00;10.33;;;12.70;1.00;;;;;;5073630;28;20631;-62
2022/05/10 03:39:11;;;;;;;11.03;9.67;;;12.70;1.00;;;;;;5076350;28;20209;-62
2022/05/10 03:41:38;;;;;;;10.43;9.33;;;12.80;1.00;;;;;;5073447;28;20216;-62
2022/05/10 03:44:06;;;;;;;9.50;8.50;;;12.90;1.00;;;;;;5058048;28;20293;-62
2022/05/10 03:46:34;;;;;;;11.17;8.60;;;13.00;1.00;;;;;;5076099;28;20194;-62
2022/05/10 03:49:01;;;;;;;15.53;9.30;;;13.00;1.00;;;;;;5053631;28;20194;-63
2022/05/10 03:51:28;;;;;;;14.73;9.60;;;13.00;99.90;;;;;;5072246;28;20572;-61
2022/05/10 03:53:55;;;;;;;11.13;8.87;;;13.00;99.90;;;;;;5062598;28;20748;-62
2022/05/10 03:56:22;;;;;;;10.93;9.40;;;13.10;99.90;;;;;;5073824;28;20213;-61
2022/05/10 03:58:50;;;;;;;11.53;8.83;;;13.10;99.90;;;;;;5064341;28;20204;-65
2022/05/10 04:01:20;;;;;;;9.27;8.30;;;13.20;99.90;;;;;;5074531;28;20218;-63
2022/05/10 04:03:48;;;;;;;9.93;9.03;;;13.10;99.90;;;;;;5048294;28;20301;-62
2022/05/10 04:06:18;;;;;;;11.07;9.70;;;12.90;99.90;;;;;;5075479;28;20698;-61
2022/05/10 04:08:45;;;;;;;15.47;10.00;;;12.60;1.00;;;;;;5074004;28;20206;-62
2022/05/10 04:11:13;;;;;;;15.20;9.63;;;12.60;1.00;;;;;;5052925;28;20260;-61
2022/05/10 04:13:42;;;;;;;11.03;8.90;;;12.60;1.00;;;;;;5058687;28;20697;-62
2022/05/10 04:16:09;;;;;;;10.67;9.53;;;12.50;1.00;;;;;;5074713;28;20198;-61
2022/05/10 04:18:36;;;;;;;12.50;9.40;;;12.80;1.00;;;;;;5074535;28;20564;-62
2022/05/10 04:21:04;;;;;;;12.07;9.37;;;12.90;1.00;;;;;;5073523;28;20262;-61
2022/05/10 04:23:32;;;;;;;11.70;9.17;;;12.90;1.00;;;;;;5074742;28;20650;-63
2022/05/10 04:26:12;;;;;;;9.40;8.47;;;13.00;1.00;;;;;;5073053;28;20623;-62
2022/05/10 04:28:40;;;;;;;8.77;7.90;;;13.20;1.00;;;;;;5073756;28;20291;-62
2022/05/10 04:31:07;;;;;;;9.30;8.40;;;13.60;99.90;;;;;;5064226;28;20225;-62
2022/05/10 04:33:34;;;;;;;11.10;9.73;;;14.10;99.90;;;;;;5056749;28;20218;-61
2022/05/10 04:36:02;;;;;;;12.43;10.97;;;14.40;73.10;;;;;;5073949;28;20197;-61
2022/05/10 04:38:29;;;;;;;28.07;22.63;;;14.60;1.00;;;;;;5061984;28;20218;-61
2022/05/10 04:44:09;;;;;;;10.90;7.60;;;15.30;1.00;;;;;;4992953;28;20197;-61
2022/05/10 04:46:38;;;;;;;10.20;7.53;;;14.90;1.00;;;;;;5048317;28;20771;-61
2022/05/10 04:49:08;;;;;;;11.90;7.90;;;14.70;1.00;;;;;;5074738;28;20194;-61
2022/05/10 04:51:35;;;;;;;8.30;7.50;;;14.70;1.00;;;;;;5076076;28;20712;-62
2022/05/10 04:54:03;;;;;;;9.27;7.73;;;14.60;1.00;;;;;;5058079;28;20218;-61
2022/05/10 04:56:30;;;;;;;8.57;7.70;;;14.60;1.00;;;;;;5076920;28;20939;-62
2022/05/10 04:58:57;;;;;;;10.27;6.83;;;14.60;1.00;;;;;;5059456;28;20198;-62
2022/05/10 05:01:28;;;;;;;12.20;10.73;;;14.60;1.00;;;;;;5075455;28;20700;-62
2022/05/10 05:03:56;;;;;;;10.20;7.60;;;14.60;1.00;;;;;;5059486;28;20678;-62
2022/05/10 05:06:26;;;;;;;12.60;11.07;;;14.80;1.00;;;;;;5066450;28;20210;-61
2022/05/10 05:08:53;;;;;;;9.63;7.90;;;15.00;1.00;;;;;;5074818;28;20195;-61
2022/05/10 05:11:20;;;;;;;12.73;10.10;;;15.10;1.00;;;;;;5071430;28;21020;-62
2022/05/10 05:13:47;;;;;;;7.43;6.63;;;15.30;1.00;;;;;;5074897;28;20758;-62
2022/05/10 05:16:14;;;;;;;9.70;7.50;;;15.30;1.00;;;;;;5059322;28;20257;-63
2022/05/10 05:18:41;;;;;;;7.60;6.80;;;15.20;1.00;;;;;;5060684;28;20783;-63
2022/05/10 05:21:09;;;;;;;8.50;7.53;;;15.20;1.00;;;;;;5061255;28;21130;-63
2022/05/10 05:23:36;;;;;;;9.43;7.17;;;15.30;1.00;;;;;;5066460;28;20742;-65
2022/05/10 05:26:04;;;;;;;12.63;8.40;;;15.40;1.00;;;;;;5059161;28;20206;-63
2022/05/10 05:28:31;;;;;;;9.33;7.70;;;15.60;1.00;;;;;;5059580;28;20339;-63
2022/05/10 05:30:58;;;;;;;10.90;7.83;;;15.80;1.00;;;;;;5075704;28;20276;-63
2022/05/10 05:33:25;;;;;;;11.07;7.83;;;15.80;1.00;;;;;;5064591;28;20840;-62
2022/05/10 05:35:52;;;;;;;11.93;7.30;;;15.70;1.00;;;;;;5079284;28;20183;-63
2022/05/10 05:38:20;;;;;;;7.83;7.10;;;15.80;1.00;;;;;;5078622;28;20222;-64
2022/05/10 05:40:47;;;;;;;7.90;6.93;;;15.70;1.00;;;;;;5076368;28;20311;-63
2022/05/10 05:43:19;;;;;;;8.93;7.30;;;15.90;1.00;;;;;;5077845;28;20199;-64
2022/05/10 05:45:48;;;;;;;10.17;7.17;;;16.30;1.00;;;;;;5060111;28;20205;-62
2022/05/10 05:48:15;;;;;;;8.13;7.10;;;16.40;1.00;;;;;;5074254;28;20203;-62
2022/05/10 05:50:42;;;;;;;10.90;7.27;;;16.60;1.00;;;;;;5076713;28;20320;-63
2022/05/10 05:53:11;;;;;;;8.90;6.90;;;16.80;1.00;;;;;;5066417;28;20242;-62
2022/05/10 05:55:40;;;;;;;7.85;7.05;;;17.10;1.00;;;;;;5072632;28;20522;-62
2022/05/10 05:58:07;;;;;;;7.78;6.65;;;17.40;1.00;;;;;;5073718;28;20226;-62
2022/05/10 06:00:34;;;;;;;9.70;7.00;;;17.70;1.00;;;;;;5058284;28;20601;-62
2022/05/10 06:03:01;;;;;;;11.82;7.57;;;18.30;1.00;;;;;;5067367;28;20281;-63
2022/05/10 06:05:28;;;;;;;8.90;6.80;;;18.80;1.00;;;;;;5071387;28;20198;-62
2022/05/10 06:07:55;;;;;;;8.05;6.60;;;19.30;1.00;;;;;;5063713;28;20217;-62
2022/05/10 06:10:22;;;;;;;9.13;6.28;;;19.60;99.90;;;;;;5079201;28;20207;-63
2022/05/10 06:12:49;;;;;;;8.57;6.80;;;19.80;99.90;;;;;;5063929;28;20209;-64
2022/05/10 06:15:18;;;;;;;10.20;9.05;;;20.00;99.90;;;;;;5067256;28;20379;-62
2022/05/10 06:17:50;;;;;;;7.88;6.43;;;20.60;99.90;;;;;;5041574;28;20648;-63
2022/05/10 06:20:20;;;;;;;8.90;7.03;;;21.40;99.90;;;;;;5080900;28;20285;-62
2022/05/10 06:22:48;;;;;;;6.97;5.65;;;22.50;99.90;;;;;;5081767;28;20217;-62
2022/05/10 06:25:18;;;;;;;8.10;5.85;;;24.00;99.90;;;;;;5078004;28;20632;-63
2022/05/10 06:27:50;;;;;;;5.95;5.07;;;24.60;99.90;;;;;;5079644;28;20223;-62
2022/05/10 06:30:19;;;;;;;6.80;5.93;;;21.90;99.90;;;;;;5060504;28;20337;-63
2022/05/10 06:32:46;;;;;;;9.48;6.05;;;20.50;99.90;;;;;;5060554;28;20190;-61
2022/05/10 06:35:15;;;;;;;6.50;5.90;;;21.50;99.90;;;;;;5078504;28;20210;-62
2022/05/10 06:40:33;;;;;;;6.25;5.50;;;23.80;99.90;;;;;;5073666;28;20233;-62
2022/05/10 06:43:01;;;;;;;8.00;6.40;;;23.00;99.90;;;;;;5075467;28;20287;-64
2022/05/10 06:45:31;;;;;;;7.63;6.25;;;21.90;99.90;;;;;;5072411;28;20851;-63
2022/05/10 06:47:59;;;;;;;8.75;5.63;;;21.40;99.90;;;;;;5078599;28;20189;-64
2022/05/10 06:50:27;;;;;;;6.63;5.60;;;22.30;99.90;;;;;;5074953;28;20206;-62
2022/05/10 06:53:00;;;;;;;8.68;6.10;;;22.60;99.90;;;;;;5054815;28;20202;-61
2022/05/10 06:55:29;;;;;;;8.90;5.60;;;22.40;99.90;;;;;;5042900;28;20243;-63
2022/05/10 06:57:56;;;;;;;6.53;5.72;;;22.80;99.90;;;;;;5076553;28;20186;-63
2022/05/10 07:00:33;;;;;;;7.75;5.35;;;23.40;99.90;;;;;;5061630;28;20210;-63
2022/05/10 07:03:10;;;;;;;7.90;5.68;;;24.30;99.90;;;;;;5058406;28;20221;-63
2022/05/10 07:05:40;;;;;;;6.32;5.38;;;24.60;99.90;;;;;;5075748;28;20840;-63
2022/05/10 07:08:07;;;;;;;7.68;4.85;;;25.30;99.90;;;;;;5054823;28;20764;-63
2022/05/10 07:10:34;;;;;;;5.45;4.57;;;24.60;99.90;;;;;;5077560;28;21333;-63
2022/05/10 07:13:01;;;;;;;6.82;4.70;;;24.40;99.90;;;;;;5077689;28;20545;-62
2022/05/10 07:15:28;;;;;;;7.40;4.75;;;23.80;99.90;;;;;;5072868;28;20742;-61
2022/05/10 07:17:55;;;;;;;7.20;4.60;;;23.50;99.90;;;;;;5056664;28;20270;-63
2022/05/10 07:20:22;;;;;;;7.28;4.72;;;23.70;99.90;;;;;;5077191;28;20211;-62
2022/05/10 07:22:49;;;;;;;7.75;4.82;;;24.60;99.90;;;;;;5078983;28;20209;-65
2022/05/10 07:25:19;;;;;;;7.78;4.32;;;27.30;99.90;;;;;;5074617;28;20255;-63
2022/05/10 07:27:46;;;;;;;5.40;3.88;;;27.20;99.90;;;;;;5077468;28;20904;-62
2022/05/10 07:30:14;;;;;;;6.35;4.68;;;28.10;99.90;;;;;;5045816;28;20191;-62
2022/05/10 07:32:42;;;;;;;7.40;3.92;;;27.70;99.90;;;;;;5076642;28;20194;-62
2022/05/10 07:35:10;;;;;;;7.22;4.20;;;27.40;99.90;;;;;;5059540;28;20385;-62
2022/05/10 07:37:39;;;;;;;6.13;4.00;;;28.50;99.90;;;;;;5075068;28;20466;-61
2022/05/10 07:40:08;;;;;;;6.63;4.20;;;27.80;99.90;;;;;;5078323;28;20363;-63
2022/05/10 07:42:37;;;;;;;7.38;4.32;;;26.40;99.90;;;;;;5074358;28;20816;-64
2022/05/10 07:45:06;;;;;;;4.28;3.88;;;26.50;99.90;;;;;;5046223;28;20191;-63
2022/05/10 07:47:33;;;;;;;4.93;4.43;;;27.20;99.90;;;;;;5076180;28;20206;-62
2022/05/10 07:50:00;;;;;;;7.95;4.30;;;26.20;99.90;;;;;;5077827;28;20255;-62
2022/05/10 07:52:27;;;;;;;6.75;4.43;;;26.40;99.90;;;;;;5076534;28;20190;-63
2022/05/10 07:54:54;;;;;;;7.15;4.90;;;27.00;99.90;;;;;;5073920;28;20331;-63
2022/05/10 07:57:21;;;;;;;7.40;5.03;;;27.80;99.90;;;;;;5053420;28;20904;-63
2022/05/10 07:59:48;;;;;;;8.43;4.55;;;27.70;99.90;;;;;;5074767;28;20231;-61
2022/05/10 08:02:16;;;;;;;10.13;5.20;;;25.80;99.90;;;;;;5074547;28;20368;-62
2022/05/10 08:04:43;;;;;;;9.60;4.75;;;26.00;99.90;;;;;;5058020;28;20251;-64
2022/05/10 08:07:10;;;;;;;7.05;4.10;;;26.70;99.90;;;;;;5074995;28;20255;-62
2022/05/10 08:09:37;;;;;;;9.68;4.75;;;26.80;99.90;;;;;;5057295;28;20198;-62
2022/05/10 08:12:04;;;;;;;9.20;5.03;;;26.00;99.90;;;;;;5074497;28;20885;-62
2022/05/10 08:14:31;;;;;;;5.93;4.47;;;26.90;99.90;;;;;;5076091;28;20202;-62
2022/05/10 08:16:58;;;;;;;5.32;4.43;;;28.20;99.90;;;;;;5065118;28;20225;-63
2022/05/10 08:19:26;;;;;;;9.07;4.68;;;29.20;99.90;;;;;;5082455;28;20199;-62
2022/05/10 08:21:56;;;;;;;8.25;4.13;;;29.00;99.90;;;;;;5060480;28;20198;-62
2022/05/10 08:24:27;;;;;;;7.00;4.30;;;28.50;99.90;;;;;;5076010;28;20220;-62
2022/05/10 08:26:55;;;;;;;7.22;4.68;;;28.60;99.90;;;;;;5060299;28;20236;-62
2022/05/10 08:29:22;;;;;;;9.10;5.45;;;27.50;99.90;;;;;;5054722;28;20194;-64
2022/05/10 08:31:49;;;;;;;7.47;4.72;;;26.40;99.90;;;;;;5073574;28;20213;-63
2022/05/10 08:34:16;;;;;;;9.18;4.47;;;25.90;99.90;;;;;;5056675;28;20229;-62
2022/05/10 08:36:46;;;;;;;6.07;4.15;;;26.10;99.90;;;;;;5077683;28;20852;-63
2022/05/10 08:39:13;;;;;;;5.28;4.10;;;26.70;99.90;;;;;;5074853;28;20367;-68
2022/05/10 08:41:49;;;;;;;6.13;4.18;;;27.70;99.90;;;;;;5075764;28;20199;-63
2022/05/10 08:44:19;;;;;;;7.03;3.97;;;29.70;99.90;;;;;;5077364;28;20270;-64
2022/05/10 08:46:51;;;;;;;5.78;4.15;;;30.80;99.90;;;;;;5058877;28;20278;-64
2022/05/10 08:49:36;;;;;;;7.68;3.80;;;28.80;99.90;;;;;;5060556;28;20217;-61
2022/05/10 08:52:06;;;;;;;4.45;3.45;;;28.90;99.90;;;;;;5051714;28;20229;-61
2022/05/10 08:54:37;;;;;;;7.72;3.47;;;32.80;99.90;;;;;;5080353;28;20892;-61
2022/05/10 08:57:15;;;;;;;4.32;3.10;;;33.30;99.90;;;;;;5062206;28;20203;-63
2022/05/10 09:00:07;;;;;;;4.10;3.38;;;34.60;99.90;;;;;;5077419;28;20592;-64
2022/05/10 09:02:39;;;;;;;6.53;3.50;;;34.10;99.90;;;;;;5058431;28;20191;-63
2022/05/10 09:05:16;;;;;;;8.40;3.15;;;31.10;99.90;;;;;;5066581;28;20277;-63
2022/05/10 09:08:08;;;;;;;4.30;3.33;;;32.50;99.90;;;;;;5081425;28;20193;-63
2022/05/10 09:10:45;;;;;;;6.60;3.20;;;31.00;99.90;;;;;;5077173;28;20229;-63
2022/05/10 09:13:17;;;;;;;5.38;3.03;;;30.70;99.90;;;;;;5066717;28;20201;-64
2022/05/10 09:15:56;;;;;;;4.50;3.25;;;30.70;99.90;;;;;;5063137;28;20639;-63
2022/05/10 09:18:46;;;;;;;5.88;3.53;;;30.70;99.90;;;;;;5063086;28;20266;-63
2022/05/10 09:21:54;;;;;;;6.88;3.60;;;31.10;99.90;;;;;;5057136;28;20796;-63
2022/05/10 09:24:47;;;;;;;7.40;2.95;;;31.00;99.90;;;;;;5008341;28;20319;-62
2022/05/10 09:27:14;;;;;;;6.20;3.30;;;30.10;99.90;;;;;;5001980;28;20211;-62
2022/05/10 09:29:50;;;;;;;4.38;3.38;;;30.40;99.90;;;;;;5042588;28;20216;-63
2022/05/10 09:35:27;;;;;;;4.50;3.30;;;30.70;99.90;;;;;;5063329;28;20732;-63
2022/05/10 09:37:58;;;;;;;6.82;2.83;;;32.00;99.90;;;;;;5078835;28;20265;-64
2022/05/10 09:40:47;;;;;;;5.00;3.50;;;32.60;99.90;;;;;;5065112;28;20218;-63
2022/05/10 09:43:17;;;;;;;5.35;3.20;;;33.00;99.90;;;;;;5071027;28;20199;-64
2022/05/10 09:45:46;;;;;;;5.55;3.30;;;32.50;99.90;;;;;;5078493;28;20576;-63
2022/05/10 09:48:18;;;;;;;6.10;3.30;;;32.10;99.90;;;;;;5079483;28;20274;-61
2022/05/10 09:50:52;;;;;;;10.80;3.13;;;32.30;99.90;;;;;;5078239;28;20311;-64
2022/05/10 09:53:40;;;;;;;3.85;3.10;;;31.90;99.90;;;;;;5062315;28;20285;-62
2022/05/10 09:56:25;;;;;;;3.63;2.70;;;32.60;99.90;;;;;;5064322;28;20199;-63
2022/05/10 09:58:59;;;;;;;6.60;3.67;;;34.70;99.90;;;;;;5063415;28;20679;-63
2022/05/10 10:01:45;;;;;;;4.80;3.13;;;32.90;99.90;;;;;;5077316;28;20197;-62
2022/05/10 10:04:16;;;;;;;3.45;3.10;;;32.60;99.90;;;;;;5077309;28;20904;-63
2022/05/10 10:06:43;;;;;;;4.95;3.00;;;32.10;99.90;;;;;;5080349;28;20203;-62
2022/05/10 10:09:30;;;;;;;5.97;2.97;;;31.80;99.90;;;;;;5061206;28;20260;-64
2022/05/10 10:11:57;;;;;;;4.82;2.95;;;30.70;99.90;;;;;;5085280;28;20589;-62
2022/05/10 10:14:42;;;;;;;4.63;2.58;;;30.50;99.90;;;;;;5072810;28;20272;-62
2022/05/10 10:17:30;;;;;;;5.78;3.00;;;31.20;99.90;;;;;;5075882;28;20279;-62
2022/05/10 10:20:20;;;;;;;4.75;2.72;;;32.60;99.90;;;;;;5060187;28;20660;-62
2022/05/10 10:22:51;;;;;;;4.88;2.65;;;31.80;99.90;;;;;;5060240;28;20186;-61
2022/05/10 10:25:31;;;;;;;3.03;2.50;;;32.80;99.90;;;;;;5078231;28;20587;-62
2022/05/10 10:28:15;;;;;;;4.10;3.10;;;31.60;99.90;;;;;;5080010;28;20191;-60
2022/05/10 10:31:09;;;;;;;3.58;2.63;;;31.00;99.90;;;;;;5064854;28;20221;-60
2022/05/10 10:34:27;;;;;;;4.43;2.92;;;30.50;99.90;;;;;;5069666;28;20205;-61
2022/05/10 10:37:20;;;;;;;6.65;2.70;;;30.00;99.90;;;;;;5042920;28;20617;-62
2022/05/10 10:40:17;;;;;;;6.78;3.22;;;30.20;99.90;;;;;;5035052;28;20235;-61
2022/05/10 10:43:10;;;;;;;5.78;3.00;;;30.40;99.90;;;;;;5060642;28;20230;-61
2022/05/10 10:45:44;;;;;;;4.30;3.08;;;28.70;99.90;;;;;;5061594;28;20213;-61
2022/05/10 10:48:48;;;;;;;4.15;2.58;;;29.00;99.90;;;;;;5064235;28;20210;-61
2022/05/10 10:51:17;;;;;;;7.30;2.72;;;30.00;99.90;;;;;;5056136;28;20272;-61
2022/05/10 10:53:46;;;;;;;6.55;2.80;;;30.50;99.90;;;;;;5075524;28;20623;-61
2022/05/10 10:56:50;;;;;;;5.95;3.38;;;29.70;99.90;;;;;;5076485;28;20194;-61
2022/05/10 10:59:26;;;;;;;5.32;3.00;;;28.80;99.90;;;;;;5073757;28;20327;-61
2022/05/10 11:02:20;;;;;;;6.90;3.63;;;29.60;99.90;;;;;;5076105;28;20407;-61
2022/05/10 11:05:06;;;;;;;3.38;2.75;;;28.90;99.90;;;;;;5078059;28;21303;-61
2022/05/10 11:08:17;;;;;;;4.22;2.80;;;29.10;99.90;;;;;;5077283;28;20206;-60
2022/05/10 11:11:08;;;;;;;7.13;2.72;;;29.00;99.90;;;;;;5077239;28;20538;-60
2022/05/10 11:13:41;;;;;;;6.10;3.00;;;29.20;99.90;;;;;;5077628;28;20256;-61
2022/05/10 11:16:20;;;;;;;3.60;3.10;;;30.00;99.90;;;;;;5079922;28;20304;-62
2022/05/10 11:19:05;;;;;;;4.43;3.08;;;29.90;99.90;;;;;;5054306;28;20211;-64
2022/05/10 11:21:32;;;;;;;5.47;3.03;;;29.50;99.90;;;;;;5077506;28;20194;-62
2022/05/10 11:24:07;;;;;;;5.55;2.80;;;28.50;99.90;;;;;;5079906;28;20220;-62
2022/05/10 11:26:46;;;;;;;6.43;3.13;;;29.50;99.90;;;;;;5057206;28;20230;-62
2022/05/10 11:29:22;;;;;;;4.18;2.80;;;29.20;99.90;;;;;;5078683;28;20194;-61
2022/05/10 11:32:13;;;;;;;5.28;2.72;;;29.20;99.90;;;;;;5046689;28;20259;-61
2022/05/10 11:35:02;;;;;;;4.18;2.45;;;29.00;99.90;;;;;;5060329;28;20946;-63
2022/05/10 11:37:40;;;;;;;5.65;3.05;;;28.50;99.90;;;;;;5060217;28;20195;-61
2022/05/10 11:40:10;;;;;;;6.57;2.80;;;28.60;99.90;;;;;;5075372;28;20241;-62
2022/05/10 11:43:07;;;;;;;5.65;2.88;;;29.00;99.90;;;;;;5075991;28;20195;-62
2022/05/10 11:45:53;;;;;;;3.85;2.50;;;28.60;99.90;;;;;;5075464;28;20316;-62
2022/05/10 11:48:49;;;;;;;10.68;2.78;;;29.00;99.90;;;;;;5061748;28;20267;-62
2022/05/10 11:51:38;;;;;;;6.07;2.83;;;29.40;99.90;;;;;;5070958;28;20662;-61
2022/05/10 11:54:53;;;;;;;4.95;2.88;;;29.40;99.90;;;;;;5058282;28;20281;-62
2022/05/10 11:57:22;;;;;;;3.00;2.70;;;29.00;99.90;;;;;;5017769;28;20268;-63
2022/05/10 11:59:50;;;;;;;8.13;2.97;;;29.20;99.90;;;;;;5076224;28;20206;-61
2022/05/10 12:02:29;;;;;;;3.85;2.50;;;28.80;99.90;;;;;;5078101;28;20195;-64
2022/05/10 12:05:14;;;;;;;2.88;2.60;;;28.40;99.90;;;;;;5074718;28;21630;-62
2022/05/10 12:07:49;;;;;;;3.35;2.58;;;28.30;99.90;;;;;;5079058;28;20256;-62
2022/05/10 12:10:22;;;;;;;3.60;2.90;;;28.50;99.90;;;;;;5057925;28;20217;-61
2022/05/10 12:12:52;;;;;;;4.93;3.10;;;28.00;99.90;;;;;;5077657;28;20313;-63
2022/05/10 12:21:37;;;;;;;6.78;3.30;;;28.90;99.90;;;;;;5076921;28;20655;-62
2022/05/10 12:24:06;;;;;;;6.82;3.70;;;28.30;99.90;;;;;;5072839;28;20202;-62
2022/05/10 12:26:35;;;;;;;4.68;3.25;;;28.30;99.90;;;;;;5077531;28;20195;-61
2022/05/10 12:29:22;;;;;;;3.63;3.10;;;27.80;99.90;;;;;;5074600;28;21672;-62
2022/05/10 12:31:56;;;;;;;6.13;3.90;;;27.90;99.90;;;;;;5077209;28;20285;-61
2022/05/10 12:34:47;;;;;;;8.05;3.85;;;28.80;99.90;;;;;;5035010;28;20189;-61
2022/05/10 12:37:39;;;;;;;5.03;3.33;;;29.40;99.90;;;;;;5071081;28;20217;-69
2022/05/10 12:40:12;;;;;;;7.28;3.88;;;28.90;99.90;;;;;;5049592;28;20325;-68
2022/05/10 12:43:07;;;;;;;8.23;3.75;;;29.00;99.90;;;;;;5060299;28;20269;-68
2022/05/10 12:45:59;;;;;;;8.75;3.83;;;29.30;99.90;;;;;;5050937;28;20205;-67
2022/05/10 12:48:43;;;;;;;6.00;3.70;;;29.10;99.90;;;;;;5078854;28;20243;-68
2022/05/10 12:51:13;;;;;;;11.00;4.00;;;29.10;99.90;;;;;;5075268;28;20247;-68
2022/05/10 12:53:49;;;;;;;10.60;4.10;;;28.40;99.90;;;;;;5061416;28;20208;-67
2022/05/10 12:56:20;;;;;;;4.88;4.03;;;28.70;99.90;;;;;;5078640;28;20754;-68
2022/05/10 12:58:53;;;;;;;9.25;4.00;;;28.40;99.90;;;;;;5060355;28;20618;-67
2022/05/10 13:01:24;;;;;;;6.03;3.78;;;28.90;99.90;;;;;;5057394;28;20235;-67
2022/05/10 13:04:02;;;;;;;7.25;4.15;;;28.70;99.90;;;;;;5060016;28;20217;-67
2022/05/10 13:06:59;;;;;;;8.43;4.32;;;28.70;99.90;;;;;;5073712;28;20248;-67
2022/05/10 13:09:29;;;;;;;5.80;4.15;;;28.90;99.90;;;;;;5056656;28;20203;-68
2022/05/10 13:12:08;;;;;;;6.32;4.43;;;28.70;99.90;;;;;;5074881;28;20273;-67
2022/05/10 13:14:39;;;;;;;8.50;3.60;;;28.90;99.90;;;;;;5071374;28;20354;-67
2022/05/10 13:17:07;;;;;;;8.73;4.40;;;28.90;99.90;;;;;;5057133;28;20618;-68
2022/05/10 13:19:43;;;;;;;5.28;3.38;;;28.50;99.90;;;;;;5074571;28;20195;-66
2022/05/10 13:22:14;;;;;;;6.43;3.55;;;28.80;99.90;;;;;;5074892;28;20217;-66
2022/05/10 13:24:49;;;;;;;4.68;3.13;;;29.00;99.90;;;;;;5053062;28;20244;-67
2022/05/10 13:27:34;;;;;;;5.63;3.85;;;28.70;99.90;;;;;;5076275;28;20183;-66
2022/05/10 13:30:10;;;;;;;4.70;3.33;;;28.50;99.90;;;;;;5073690;28;20718;-66
2022/05/10 13:32:47;;;;;;;10.90;3.78;;;28.70;99.90;;;;;;5074957;28;20291;-66
2022/05/10 13:35:27;;;;;;;6.60;3.55;;;28.70;99.90;;;;;;5059349;28;20202;-66
2022/05/10 13:38:06;;;;;;;4.40;3.22;;;28.30;99.90;;;;;;5079542;28;20288;-67
2022/05/10 13:40:49;;;;;;;4.30;3.72;;;28.80;99.90;;;;;;5067053;28;20317;-66
2022/05/10 13:43:20;;;;;;;7.53;3.55;;;28.80;99.90;;;;;;5076162;28;20233;-67
2022/05/10 13:45:53;;;;;;;5.38;3.35;;;28.70;99.90;;;;;;5063566;28;20250;-67